Time;durP1;ratioP1;P1;durP2;ratioP2;P2;SDS_P1;SDS_P2;PMS_P1;PMS_P2;Temp;Humidity;BMP_temperature;BMP_pressure;BME280_temperature;BME280_humidity;BME280_pressure;Samples;Min_cycle;Max_cycle;Signal;HPM_P1;HPM_P2
2022/04/21 00:00:23;;;;;;;8.27;6.90;;;;;;;9.56;100.00;98706.25;5019865;28;20194;-79
2022/04/21 00:02:55;;;;;;;6.90;5.70;;;;;;;9.59;100.00;98706.88;5012879;28;20191;-79
2022/04/21 00:05:25;;;;;;;10.20;6.07;;;;;;;9.54;100.00;98703.66;5016670;28;20300;-79
2022/04/21 00:07:55;;;;;;;8.57;5.90;;;;;;;9.66;100.00;98702.03;5034780;28;20204;-80
2022/04/21 00:10:29;;;;;;;7.37;5.50;;;;;;;9.49;100.00;98697.00;5031963;28;20227;-80
2022/04/21 00:12:58;;;;;;;7.73;5.23;;;;;;;9.30;100.00;98698.25;5032894;28;20204;-80
2022/04/21 00:15:27;;;;;;;5.83;4.77;;;;;;;9.57;100.00;98687.63;5026615;28;20222;-80
2022/04/21 00:18:02;;;;;;;7.40;5.47;;;;;;;9.44;100.00;98689.38;5032718;28;20206;-80
2022/04/21 00:20:31;;;;;;;8.67;6.10;;;;;;;9.13;100.00;98687.94;5031100;28;20202;-81
2022/04/21 00:25:48;;;;;;;8.40;5.70;;;;;;;9.48;100.00;98682.09;5046519;28;20703;-80
2022/04/21 00:28:18;;;;;;;7.87;4.93;;;;;;;9.43;100.00;98674.47;5058822;28;20212;-80
2022/04/21 00:30:47;;;;;;;6.90;5.17;;;;;;;9.27;100.00;98676.47;5057124;28;20211;-79
2022/04/21 00:33:16;;;;;;;5.67;5.07;;;;;;;9.18;100.00;98678.75;5050010;28;20204;-80
2022/04/21 00:35:49;;;;;;;9.17;6.10;;;;;;;8.92;100.00;98671.69;5047618;28;20641;-80
2022/04/21 00:38:21;;;;;;;12.60;6.27;;;;;;;8.98;100.00;98666.03;5047158;28;20205;-80
2022/04/21 00:40:52;;;;;;;12.97;6.93;;;;;;;8.95;100.00;98671.47;5051153;28;20189;-80
2022/04/21 00:43:22;;;;;;;12.20;6.37;;;;;;;9.04;100.00;98662.94;5054663;28;20204;-80
2022/04/21 00:45:56;;;;;;;13.17;5.80;;;;;;;8.87;100.00;98663.19;5072912;28;20231;-80
2022/04/21 00:48:25;;;;;;;7.10;5.30;;;;;;;8.92;100.00;98662.91;5071065;28;20192;-80
2022/04/21 00:50:55;;;;;;;9.47;5.30;;;;;;;8.85;100.00;98660.66;5073875;28;20192;-81
2022/04/21 00:53:26;;;;;;;8.37;5.67;;;;;;;8.76;100.00;98657.78;5072953;28;20208;-81
2022/04/21 00:55:58;;;;;;;9.20;5.60;;;;;;;8.59;100.00;98651.81;5074244;28;20231;-81
2022/04/21 00:58:28;;;;;;;8.43;4.97;;;;;;;8.52;100.00;98660.22;5075846;28;20196;-80
2022/04/21 01:00:56;;;;;;;6.53;5.13;;;;;;;8.56;100.00;98657.25;5067230;28;20200;-80
2022/04/21 01:03:24;;;;;;;8.40;5.13;;;;;;;8.63;100.00;98660.38;5071853;28;20288;-81
2022/04/21 01:05:54;;;;;;;7.60;5.27;;;;;;;8.41;100.00;98662.69;5075342;28;20197;-80
2022/04/21 01:08:23;;;;;;;8.17;5.00;;;;;;;8.54;100.00;98660.94;5075386;28;20204;-80
2022/04/21 01:10:52;;;;;;;9.60;5.40;;;;;;;8.52;100.00;98658.41;5072548;28;20192;-80
2022/04/21 01:13:22;;;;;;;11.47;5.97;;;;;;;8.39;100.00;98660.13;5070549;28;20184;-80
2022/04/21 01:15:51;;;;;;;10.90;5.43;;;;;;;8.51;100.00;98656.72;5038271;28;20269;-80
2022/04/21 01:18:28;;;;;;;7.23;4.83;;;;;;;8.57;100.00;98651.03;5073551;28;20279;-80
2022/04/21 01:20:58;;;;;;;7.20;4.70;;;;;;;8.51;100.00;98661.16;5077502;28;20286;-80
2022/04/21 01:23:29;;;;;;;6.40;4.67;;;;;;;8.38;100.00;98660.22;5065909;28;20200;-80
2022/04/21 01:25:57;;;;;;;7.80;4.97;;;;;;;8.33;100.00;98658.69;5072174;28;20212;-80
2022/04/21 01:28:26;;;;;;;10.43;4.80;;;;;;;8.34;100.00;98649.00;5068857;28;20258;-80
2022/04/21 01:30:59;;;;;;;8.97;5.30;;;;;;;8.37;100.00;98648.81;5075160;28;20201;-81
2022/04/21 01:33:28;;;;;;;10.07;5.20;;;;;;;8.40;100.00;98642.53;5031921;28;20224;-81
2022/04/21 01:36:00;;;;;;;6.93;4.83;;;;;;;8.36;100.00;98646.28;4932408;29;20225;-80
2022/04/21 01:41:21;;;;;;;8.17;4.60;;;;;;;8.17;100.00;98646.56;4938730;29;20681;-81
2022/04/21 01:43:49;;;;;;;5.47;4.20;;;;;;;8.03;100.00;98642.16;4937228;29;20212;-80
2022/04/21 01:46:18;;;;;;;6.20;4.83;;;;;;;8.18;100.00;98642.97;4938174;29;20229;-79
2022/04/21 01:48:49;;;;;;;17.60;7.40;;;;;;;8.23;100.00;98635.63;4940797;29;20306;-80
2022/04/21 01:51:19;;;;;;;26.47;9.50;;;;;;;8.03;100.00;98634.25;4919079;28;20212;-80
2022/04/21 01:53:48;;;;;;;20.70;8.43;;;;;;;8.20;100.00;98630.53;4950429;28;20211;-80
2022/04/21 01:56:17;;;;;;;26.33;8.83;;;;;;;8.02;100.00;98617.56;4949309;28;20227;-80
2022/04/21 01:58:46;;;;;;;23.90;9.33;;;;;;;8.21;100.00;98616.41;4949308;28;20204;-79
2022/04/21 02:01:14;;;;;;;22.73;8.07;;;;;;;8.15;100.00;98619.44;5021396;28;20201;-80
2022/04/21 02:03:43;;;;;;;16.83;7.80;;;;;;;8.12;100.00;98617.84;5044831;28;20220;-80
2022/04/21 02:06:15;;;;;;;8.87;5.40;;;;;;;8.04;100.00;98612.19;5046937;28;20193;-80
2022/04/21 02:08:47;;;;;;;9.97;5.90;;;;;;;8.14;100.00;98615.94;5054893;28;20193;-79
2022/04/21 02:11:15;;;;;;;6.70;4.70;;;;;;;7.87;100.00;98618.50;5071014;28;20202;-80
2022/04/21 02:13:47;;;;;;;8.83;5.07;;;;;;;7.62;100.00;98605.13;5071626;28;20238;-80
2022/04/21 02:16:20;;;;;;;6.60;4.40;;;;;;;7.72;100.00;98608.88;5010717;28;20228;-79
2022/04/21 02:18:49;;;;;;;8.23;4.70;;;;;;;7.74;100.00;98607.88;5009184;28;20207;-79
2022/04/21 02:21:17;;;;;;;5.27;4.37;;;;;;;7.54;100.00;98607.41;5004953;28;20203;-79
2022/04/21 02:23:50;;;;;;;5.77;4.30;;;;;;;7.74;100.00;98613.16;5009156;28;20205;-80
2022/04/21 02:26:18;;;;;;;5.40;4.33;;;;;;;7.63;100.00;98599.78;5008355;28;20221;-80
2022/04/21 02:28:47;;;;;;;5.57;4.37;;;;;;;7.71;100.00;98604.56;5011469;28;20213;-79
2022/04/21 02:31:15;;;;;;;6.47;5.00;;;;;;;7.60;100.00;98594.69;5002949;28;20203;-79
2022/04/21 02:33:43;;;;;;;7.37;4.73;;;;;;;7.63;100.00;98597.16;5018964;28;20639;-79
2022/04/21 02:36:12;;;;;;;8.27;4.23;;;;;;;7.70;100.00;98585.28;5072506;28;20338;-80
2022/04/21 02:38:43;;;;;;;6.97;4.77;;;;;;;7.83;100.00;98582.75;5068229;28;20287;-79
2022/04/21 02:41:17;;;;;;;5.97;4.43;;;;;;;7.83;100.00;98588.00;5067201;28;20265;-80
2022/04/21 02:43:45;;;;;;;7.83;4.97;;;;;;;7.80;100.00;98579.44;5072911;28;20241;-80
2022/04/21 02:46:14;;;;;;;6.57;5.30;;;;;;;7.68;100.00;98588.94;5069337;28;20239;-79
2022/04/21 02:48:42;;;;;;;7.43;4.87;;;;;;;7.75;100.00;98579.72;5070512;28;20192;-80
2022/04/21 02:51:11;;;;;;;5.77;4.77;;;;;;;7.60;100.00;98576.25;5073819;28;20193;-80
2022/04/21 02:59:12;;;;;;;7.30;4.60;;;;;;;7.62;100.00;98587.53;5082684;28;20196;-80
2022/04/21 03:01:44;;;;;;;6.47;4.97;;;;;;;7.63;100.00;98581.34;5071908;28;20204;-80
2022/04/21 03:04:15;;;;;;;7.40;4.90;;;;;;;7.64;100.00;98579.56;5057779;28;20205;-80
2022/04/21 03:06:43;;;;;;;7.70;4.83;;;;;;;7.54;100.00;98578.41;5051853;28;20204;-80
2022/04/21 03:09:11;;;;;;;7.53;5.07;;;;;;;7.62;100.00;98571.72;5049979;28;20200;-80
2022/04/21 03:11:48;;;;;;;8.07;5.10;;;;;;;7.60;100.00;98570.13;5050751;28;20208;-80
2022/04/21 03:14:19;;;;;;;5.77;4.67;;;;;;;7.60;100.00;98568.34;5053949;28;20201;-79
2022/04/21 03:16:49;;;;;;;8.20;4.90;;;;;;;7.40;100.00;98577.44;5052833;28;20271;-80
2022/04/21 03:19:17;;;;;;;7.80;4.97;;;;;;;7.35;100.00;98579.53;5051976;28;20197;-80
2022/04/21 03:24:32;;;;;;;5.90;4.67;;;;;;;7.23;100.00;98579.41;5055533;28;20219;-80
2022/04/21 03:27:04;;;;;;;6.40;4.73;;;;;;;7.24;100.00;98576.69;5051472;28;20207;-79
2022/04/21 03:29:37;;;;;;;7.03;4.87;;;;;;;7.32;100.00;98581.47;5047315;28;20201;-80
2022/04/21 03:32:11;;;;;;;6.33;4.77;;;;;;;7.34;100.00;98577.84;5057468;28;20640;-80
2022/04/21 03:34:41;;;;;;;5.47;4.20;;;;;;;7.36;100.00;98575.94;5055003;28;20205;-80
2022/04/21 03:37:14;;;;;;;7.57;4.53;;;;;;;6.67;100.00;98584.44;5053577;28;20217;-80
2022/04/21 03:39:43;;;;;;;7.17;4.67;;;;;;;6.92;100.00;98583.84;5050682;28;20197;-80
2022/04/21 03:42:20;;;;;;;9.03;4.60;;;;;;;7.08;100.00;98589.06;5047990;28;20181;-80
2022/04/21 03:44:49;;;;;;;4.90;4.00;;;;;;;7.21;100.00;98597.09;5051320;28;20216;-80
2022/04/21 03:47:18;;;;;;;6.03;3.90;;;;;;;7.01;100.00;98593.84;5053364;28;20225;-79
2022/04/21 03:49:46;;;;;;;7.23;4.10;;;;;;;7.00;100.00;98589.50;5057098;28;20228;-80
2022/04/21 03:52:17;;;;;;;9.23;4.53;;;;;;;7.16;100.00;98589.47;5057972;28;20197;-80
2022/04/21 03:54:46;;;;;;;8.93;4.27;;;;;;;6.99;100.00;98595.72;5056876;28;20228;-80
2022/04/21 03:57:14;;;;;;;4.73;3.90;;;;;;;7.27;100.00;98589.66;5050136;28;20220;-80
2022/04/21 03:59:44;;;;;;;5.63;4.23;;;;;;;7.43;100.00;98592.22;5054689;28;20200;-81
2022/04/21 04:02:14;;;;;;;8.03;4.23;;;;;;;7.51;100.00;98584.69;5052846;28;20251;-80
2022/04/21 04:04:43;;;;;;;4.23;3.70;;;;;;;7.64;100.00;98585.66;5054743;28;20197;-80
2022/04/21 04:12:43;;;;;;;7.53;4.23;;;;;;;7.72;100.00;98588.69;5053175;28;20197;-80
2022/04/21 04:15:13;;;;;;;5.40;3.90;;;;;;;7.66;100.00;98594.31;5050170;28;20201;-80
2022/04/21 04:17:41;;;;;;;5.20;3.90;;;;;;;7.54;100.00;98589.81;5052765;28;20684;-80
2022/04/21 04:20:10;;;;;;;6.37;3.90;;;;;;;7.65;100.00;98592.63;5054700;28;20205;-79
2022/04/21 04:22:40;;;;;;;5.17;4.17;;;;;;;7.63;100.00;98591.88;5061244;28;20641;-79
2022/04/21 04:25:10;;;;;;;7.47;4.30;;;;;;;7.61;100.00;98590.25;5055009;28;20213;-80
2022/04/21 04:27:39;;;;;;;6.97;4.03;;;;;;;7.68;100.00;98594.22;5059901;28;20201;-80
2022/04/21 04:30:09;;;;;;;5.57;4.03;;;;;;;7.33;100.00;98596.34;5057991;28;20197;-80
2022/04/21 04:32:40;;;;;;;6.73;4.17;;;;;;;7.33;100.00;98601.59;5055956;28;20193;-80
2022/04/21 04:35:09;;;;;;;7.43;3.83;;;;;;;7.40;100.00;98603.78;5056888;28;20215;-80
2022/04/21 04:37:38;;;;;;;3.80;3.37;;;;;;;7.47;100.00;98604.28;5055558;28;20228;-80
2022/04/21 04:40:08;;;;;;;6.10;3.90;;;;;;;7.48;100.00;98600.69;5059616;28;20205;-80
2022/04/21 04:42:37;;;;;;;5.47;4.27;;;;;;;7.62;100.00;98605.13;5055343;28;20204;-80
2022/04/21 04:48:19;;;;;;;5.53;3.63;;;;;;;7.58;100.00;98598.38;5072485;28;20655;-80
2022/04/21 04:50:57;;;;;;;6.40;3.87;;;;;;;7.68;100.00;98607.41;5054139;28;20234;-80
2022/04/21 04:53:26;;;;;;;6.03;4.17;;;;;;;7.58;100.00;98607.09;5055567;28;20196;-80
2022/04/21 04:55:55;;;;;;;7.70;4.33;;;;;;;7.70;100.00;98601.09;5058852;28;20196;-80
2022/04/21 04:58:26;;;;;;;5.43;4.00;;;;;;;7.70;100.00;98606.34;5055448;28;20300;-81
2022/04/21 05:01:19;;;;;;;5.80;3.83;;;;;;;7.87;100.00;98609.75;5061440;28;20223;-80
2022/04/21 05:04:15;;;;;;;5.17;4.00;;;;;;;7.63;100.00;98612.97;4989971;28;20206;-80
2022/04/21 05:07:06;;;;;;;4.30;3.90;;;;;;;7.57;100.00;98607.22;4993290;28;20207;-80
2022/04/21 05:09:58;;;;;;;5.40;3.77;;;;;;;7.67;100.00;98616.25;4993208;28;20202;-80
2022/04/21 05:12:31;;;;;;;8.03;4.33;;;;;;;7.55;100.00;98612.56;4989087;28;20202;-80
2022/04/21 05:15:01;;;;;;;9.63;4.00;;;;;;;7.68;100.00;98607.41;4986438;28;20199;-80
2022/04/21 05:17:30;;;;;;;6.53;3.70;;;;;;;7.51;100.00;98612.84;4970099;28;20247;-80
2022/04/21 05:20:36;;;;;;;7.83;4.60;;;;;;;7.61;100.00;98606.06;4961863;28;20207;-81
2022/04/21 05:23:06;;;;;;;6.13;4.10;;;;;;;7.51;100.00;98612.84;4970816;28;20218;-80
2022/04/21 05:25:40;;;;;;;7.30;4.37;;;;;;;7.36;100.00;98619.88;4973849;28;20200;-80
2022/04/21 05:28:11;;;;;;;6.93;4.33;;;;;;;7.38;100.00;98616.22;4971099;28;20196;-80
2022/04/21 05:33:42;;;;;;;6.77;4.67;;;;;;;7.28;100.00;98607.16;4973538;28;20191;-80
2022/04/21 05:36:13;;;;;;;5.83;4.63;;;;;;;7.24;100.00;98607.44;4968593;28;20208;-80
2022/04/21 05:38:42;;;;;;;8.70;4.67;;;;;;;7.25;100.00;98606.50;4957272;28;20224;-79
2022/04/21 05:41:13;;;;;;;7.63;5.20;;;;;;;7.11;100.00;98599.41;4973775;28;20210;-80
2022/04/21 05:43:44;;;;;;;7.57;4.80;;;;;;;7.04;100.00;98603.34;5013565;28;20374;-80
2022/04/21 05:46:18;;;;;;;8.37;5.10;;;;;;;7.18;100.00;98612.13;5009157;28;20258;-80
2022/04/21 05:48:48;;;;;;;6.77;4.90;;;;;;;7.37;100.00;98603.16;5021594;28;20249;-80
2022/04/21 05:51:19;;;;;;;6.90;4.77;;;;;;;7.50;100.00;98600.59;4956373;28;20304;-81
2022/04/21 05:53:50;;;;;;;6.43;4.83;;;;;;;7.65;100.00;98597.06;4916608;29;20194;-81
2022/04/21 05:56:18;;;;;;;9.53;5.00;;;;;;;7.70;100.00;98595.81;4928574;29;20212;-80
2022/04/21 05:58:48;;;;;;;10.03;5.03;;;;;;;7.86;100.00;98600.16;4929407;29;20225;-80
2022/04/21 06:01:17;;;;;;;7.17;4.47;;;;;;;7.77;100.00;98595.44;4929966;29;20193;-80
2022/04/21 06:03:49;;;;;;;7.57;4.73;;;;;;;7.84;100.00;98594.13;4910679;29;20268;-80
2022/04/21 06:06:19;;;;;;;6.33;4.40;;;;;;;8.16;100.00;98594.75;4893871;29;20202;-80
2022/04/21 06:08:48;;;;;;;11.17;5.00;;;;;;;8.15;100.00;98600.97;4897362;29;20258;-81
2022/04/21 06:11:17;;;;;;;8.30;4.97;;;;;;;8.29;100.00;98598.28;4939890;28;20191;-80
2022/04/21 06:13:46;;;;;;;9.20;5.30;;;;;;;8.22;100.00;98602.28;4965353;28;20206;-82
2022/04/21 06:16:15;;;;;;;5.40;4.43;;;;;;;8.36;100.00;98599.63;4963437;28;20194;-81
2022/04/21 06:18:44;;;;;;;8.47;5.10;;;;;;;8.45;100.00;98600.84;5029432;28;20244;-80
2022/04/21 06:21:13;;;;;;;5.43;4.53;;;;;;;8.43;100.00;98594.81;5032666;28;20204;-80
2022/04/21 06:23:50;;;;;;;5.90;4.20;;;;;;;8.46;100.00;98602.53;5068089;28;20216;-80
2022/04/21 06:26:25;;;;;;;5.67;4.53;;;;;;;8.54;100.00;98598.44;5067664;28;20271;-80
2022/04/21 06:29:02;;;;;;;8.20;4.93;;;;;;;8.66;100.00;98598.59;5074688;28;20203;-81
2022/04/21 06:31:36;;;;;;;6.60;4.47;;;;;;;8.81;100.00;98593.16;5067533;28;20188;-81
2022/04/21 06:34:05;;;;;;;6.50;4.77;;;;;;;8.83;100.00;98595.69;5068820;28;20200;-81
2022/04/21 06:36:33;;;;;;;7.93;4.60;;;;;;;8.83;100.00;98593.91;5067905;28;20200;-80
2022/04/21 06:39:09;;;;;;;8.43;4.33;;;;;;;8.89;100.00;98593.50;5067358;28;20231;-80
2022/04/21 06:41:40;;;;;;;7.17;4.43;;;;;;;9.03;100.00;98591.75;5064723;28;20192;-80
2022/04/21 06:49:41;;;;;;;8.17;4.97;;;;;;;9.11;100.00;98597.38;5071198;28;20193;-81
2022/04/21 06:52:12;;;;;;;5.53;4.43;;;;;;;9.33;100.00;98596.75;5070126;28;20211;-81
2022/04/21 06:54:43;;;;;;;5.93;3.97;;;;;;;9.44;100.00;98599.50;5067560;28;20197;-81
2022/04/21 06:57:14;;;;;;;7.33;5.10;;;;;;;9.43;100.00;98601.31;5071519;28;20207;-80
2022/04/21 06:59:43;;;;;;;8.40;4.70;;;;;;;9.52;100.00;98599.84;5071833;28;20607;-81
2022/04/21 07:02:12;;;;;;;5.93;4.93;;;;;;;9.57;100.00;98600.38;5065427;28;20197;-80
2022/04/21 07:04:41;;;;;;;6.33;5.07;;;;;;;9.66;100.00;98604.19;5072863;28;20206;-81
2022/04/21 07:07:10;;;;;;;7.40;4.97;;;;;;;9.58;100.00;98603.88;5065391;28;20654;-80
2022/04/21 07:09:39;;;;;;;7.77;4.97;;;;;;;9.64;100.00;98609.56;5048929;28;20275;-79
2022/04/21 07:12:12;;;;;;;8.40;5.10;;;;;;;9.67;100.00;98601.44;5070862;28;20192;-81
2022/04/21 07:14:41;;;;;;;6.53;4.63;;;;;;;9.74;100.00;98604.47;5075156;28;20208;-80
2022/04/21 07:17:12;;;;;;;9.43;4.97;;;;;;;9.84;100.00;98605.53;5069012;28;20193;-81
2022/04/21 07:19:40;;;;;;;4.93;3.80;;;;;;;9.85;100.00;98594.03;5060229;28;20235;-81
2022/04/21 07:22:09;;;;;;;5.87;3.50;;;;;;;9.92;100.00;98599.69;5059664;28;20654;-81
2022/04/21 07:24:37;;;;;;;6.10;3.73;;;;;;;9.65;100.00;98605.09;5062943;28;20283;-80
2022/04/21 07:27:12;;;;;;;8.30;4.33;;;;;;;9.73;100.00;98602.78;5074092;28;20245;-80
2022/04/21 07:29:41;;;;;;;6.50;3.73;;;;;;;9.73;100.00;98590.41;5065220;28;20188;-80
2022/04/21 07:32:11;;;;;;;5.30;3.83;;;;;;;9.83;100.00;98592.41;5067117;28;20177;-80
2022/04/21 07:34:39;;;;;;;9.80;3.73;;;;;;;9.77;100.00;98595.50;5070507;28;20292;-81
2022/04/21 07:37:12;;;;;;;4.20;3.70;;;;;;;9.83;100.00;98593.25;5072437;28;20287;-79
2022/04/21 07:39:42;;;;;;;6.73;3.63;;;;;;;9.87;100.00;98593.91;5075003;28;20236;-80
2022/04/21 07:42:15;;;;;;;5.73;3.50;;;;;;;9.92;100.00;98594.41;5055218;28;20206;-80
2022/04/21 07:44:45;;;;;;;5.43;3.97;;;;;;;9.98;100.00;98599.28;5075707;28;20204;-80
2022/04/21 07:47:14;;;;;;;7.07;3.67;;;;;;;9.97;100.00;98602.88;5076785;28;20228;-78
2022/04/21 07:49:48;;;;;;;5.77;3.57;;;;;;;9.90;100.00;98586.59;5064903;28;20863;-81
2022/04/21 07:55:11;;;;;;;5.87;4.03;;;;;;;9.92;100.00;98586.47;5061376;28;20204;-81
2022/04/21 07:57:42;;;;;;;7.20;3.70;;;;;;;9.85;100.00;98585.25;5028826;28;20193;-81
2022/04/21 08:00:12;;;;;;;7.07;4.13;;;;;;;9.83;100.00;98580.03;5015506;28;20221;-81
2022/04/21 08:02:42;;;;;;;4.73;3.90;;;;;;;9.94;100.00;98587.22;5028993;28;20213;-80
2022/04/21 08:05:12;;;;;;;7.73;4.50;;;;;;;10.07;100.00;98571.34;5024632;28;20197;-80
2022/04/21 08:07:41;;;;;;;7.70;4.20;;;;;;;9.98;100.00;98583.41;4954972;28;20285;-80
2022/04/21 08:10:14;;;;;;;5.27;4.27;;;;;;;10.23;100.00;98575.47;4956759;28;20192;-81
2022/04/21 08:12:45;;;;;;;6.37;4.20;;;;;;;10.10;100.00;98566.66;4943828;29;20201;-80
2022/04/21 08:15:23;;;;;;;5.47;4.13;;;;;;;10.22;100.00;98567.59;4961668;28;20203;-81
2022/04/21 08:17:54;;;;;;;10.03;4.40;;;;;;;10.18;100.00;98572.25;4998763;28;20211;-80
2022/04/21 08:20:25;;;;;;;5.60;4.03;;;;;;;10.39;100.00;98569.88;4992297;28;20244;-81
2022/04/21 08:22:53;;;;;;;7.40;3.90;;;;;;;10.50;100.00;98572.59;4992562;28;20206;-80
2022/04/21 08:34:22;;;;;;;6.70;4.20;;;;;;;10.52;100.00;98578.63;4962891;28;20310;-81
2022/04/21 08:36:54;;;;;;;8.07;4.37;;;;;;;10.75;100.00;98582.22;4988913;28;20250;-80
2022/04/21 08:39:24;;;;;;;6.37;4.37;;;;;;;10.74;100.00;98575.25;4989726;28;20322;-81
2022/04/21 08:41:58;;;;;;;6.77;4.13;;;;;;;10.96;100.00;98578.94;4957729;28;20208;-80
2022/04/21 08:44:32;;;;;;;5.20;4.33;;;;;;;10.89;100.00;98571.44;4975108;28;20206;-81
2022/04/21 08:47:07;;;;;;;7.57;4.00;;;;;;;11.20;100.00;98568.31;4933937;29;20255;-80
2022/04/21 08:49:39;;;;;;;6.27;5.20;;;;;;;11.39;100.00;98571.25;5001491;28;20280;-80
2022/04/21 08:52:08;;;;;;;6.30;4.40;;;;;;;11.59;100.00;98567.06;5025996;28;20305;-80
2022/04/21 08:54:37;;;;;;;6.57;4.50;;;;;;;11.64;100.00;98564.88;5029722;28;20200;-81
2022/04/21 08:57:09;;;;;;;5.73;4.23;;;;;;;11.83;100.00;98565.16;5033940;28;20186;-80
2022/04/21 08:59:40;;;;;;;7.73;4.17;;;;;;;12.41;100.00;98563.16;5026319;28;20281;-80
2022/04/21 09:02:09;;;;;;;5.43;3.90;;;;;;;12.29;100.00;98559.69;5019208;28;20206;-80
2022/04/21 09:04:41;;;;;;;7.33;3.93;;;;;;;12.41;100.00;98563.16;4988436;28;20251;-80
2022/04/21 09:07:31;;;;;;;5.03;3.90;;;;;;;12.42;100.00;98559.53;4971498;28;20201;-80
2022/04/21 09:10:07;;;;;;;5.10;4.10;;;;;;;12.80;100.00;98559.06;4974598;28;20192;-80
2022/04/21 09:12:38;;;;;;;7.27;3.90;;;;;;;13.10;100.00;98557.47;5038615;28;20735;-80
2022/04/21 09:15:12;;;;;;;6.10;3.70;;;;;;;12.90;100.00;98552.00;5041145;28;20193;-80
2022/04/21 09:17:51;;;;;;;11.53;4.37;;;;;;;13.31;100.00;98547.69;5042493;28;20271;-80
2022/04/21 09:20:21;;;;;;;8.53;4.20;;;;;;;13.35;100.00;98543.81;5048452;28;20227;-80
2022/04/21 09:22:53;;;;;;;7.30;3.80;;;;;;;13.56;100.00;98545.63;5001180;28;20193;-81
2022/04/21 09:25:24;;;;;;;5.33;3.40;;;;;;;13.92;100.00;98537.09;5003673;28;20290;-80
2022/04/21 09:27:55;;;;;;;4.97;3.40;;;;;;;14.22;100.00;98533.53;5002347;28;20796;-81
2022/04/21 09:30:27;;;;;;;7.27;3.67;;;;;;;14.19;100.00;98533.81;5019719;28;20204;-81
2022/04/21 09:32:57;;;;;;;4.57;3.70;;;;;;;14.06;100.00;98532.38;5032177;28;20205;-81
2022/04/21 09:35:28;;;;;;;6.70;3.50;;;;;;;14.02;100.00;98521.16;5028463;28;20255;-81
2022/04/21 09:38:02;;;;;;;3.97;2.90;;;;;;;14.27;100.00;98525.97;5023017;28;20201;-80
2022/04/21 09:40:36;;;;;;;6.13;3.27;;;;;;;14.48;99.95;98530.41;5027814;28;20221;-81
2022/04/21 09:43:07;;;;;;;3.57;2.47;;;;;;;15.09;95.39;98536.31;4990376;28;20201;-81
2022/04/21 09:48:31;;;;;;;6.73;3.20;;;;;;;14.72;96.24;98514.00;5029897;28;20202;-81
2022/04/21 09:51:10;;;;;;;4.80;3.17;;;;;;;14.73;95.93;98523.69;5061743;28;20238;-81
2022/04/21 09:53:55;;;;;;;4.50;3.10;;;;;;;15.16;92.93;98510.75;5069684;28;20197;-81
2022/04/21 09:56:33;;;;;;;4.17;3.23;;;;;;;15.04;94.81;98509.19;5069475;28;20242;-81
2022/04/21 09:59:04;;;;;;;4.77;3.20;;;;;;;14.92;93.90;98514.84;5066344;28;20192;-80
2022/04/21 10:01:37;;;;;;;4.33;3.10;;;;;;;15.35;93.01;98511.69;5072711;28;20683;-81
2022/04/21 10:04:11;;;;;;;5.37;2.93;;;;;;;15.95;91.31;98499.69;5071323;28;20208;-81
2022/04/21 10:06:40;;;;;;;3.30;3.00;;;;;;;16.28;86.21;98500.91;5062608;28;20193;-80
2022/04/21 10:09:09;;;;;;;4.23;3.00;;;;;;;16.35;82.28;98492.28;5047113;28;20655;-81
2022/04/21 10:11:42;;;;;;;5.47;3.07;;;;;;;16.17;83.09;98494.94;5054081;28;20225;-82
2022/04/21 10:14:12;;;;;;;6.50;3.50;;;;;;;15.45;89.98;98488.50;5068553;28;20642;-81
2022/04/21 10:16:48;;;;;;;4.03;2.83;;;;;;;15.77;90.17;98488.13;5074321;28;20188;-81
2022/04/21 10:19:19;;;;;;;3.77;3.20;;;;;;;15.96;88.31;98492.53;5071544;28;20284;-81
2022/04/21 10:21:54;;;;;;;6.50;3.30;;;;;;;15.69;86.53;98491.50;5070257;28;20675;-81
2022/04/21 10:24:25;;;;;;;3.50;2.90;;;;;;;15.69;87.72;98483.50;5067001;28;20191;-81
2022/04/21 10:26:56;;;;;;;5.80;3.23;;;;;;;16.44;85.80;98484.22;5007755;28;20191;-80
2022/04/21 10:29:27;;;;;;;7.27;3.77;;;;;;;16.15;85.97;98489.75;5006250;28;20201;-80
2022/04/21 10:32:03;;;;;;;3.90;3.30;;;;;;;16.59;82.62;98481.81;5012367;28;20199;-81
2022/04/21 10:34:40;;;;;;;5.50;3.40;;;;;;;17.32;80.35;98481.63;4969486;28;20203;-81
2022/04/21 10:37:16;;;;;;;5.00;3.30;;;;;;;17.33;81.11;98469.91;4942375;28;20238;-81
2022/04/21 10:40:04;;;;;;;5.10;3.83;;;;;;;17.58;79.27;98473.56;4966128;28;20204;-80
2022/04/21 10:42:57;;;;;;;4.40;4.00;;;;;;;18.24;75.75;98456.78;4922303;29;20233;-81
2022/04/21 10:45:30;;;;;;;4.20;3.50;;;;;;;18.28;74.89;98466.16;4922681;28;20205;-81
2022/04/21 10:48:08;;;;;;;5.23;2.83;;;;;;;18.04;72.84;98461.56;4896771;29;20375;-81
2022/04/21 10:50:39;;;;;;;4.07;2.90;;;;;;;17.47;73.73;98461.31;4903115;29;20208;-82
2022/04/21 10:58:52;;;;;;;5.30;3.20;;;;;;;17.62;78.26;98459.69;4991874;28;20198;-81
2022/04/21 11:01:31;;;;;;;3.83;3.40;;;;;;;17.51;76.52;98451.94;4989683;28;20696;-81
2022/04/21 11:04:27;;;;;;;4.60;2.70;;;;;;;17.69;75.17;98450.06;4949685;29;20215;-81
2022/04/21 11:07:13;;;;;;;4.27;2.90;;;;;;;17.94;78.32;98447.47;4954645;28;20204;-81
2022/04/21 11:09:50;;;;;;;4.63;2.87;;;;;;;18.13;73.66;98454.38;4956920;28;20207;-81
2022/04/21 11:12:44;;;;;;;5.67;2.80;;;;;;;17.76;77.46;98439.53;4991675;28;20231;-81
2022/04/21 11:15:33;;;;;;;3.83;2.80;;;;;;;17.48;78.43;98446.91;4989427;28;20191;-81
2022/04/21 11:18:09;;;;;;;3.50;2.80;;;;;;;17.34;78.52;98448.31;4990460;28;20209;-82
2022/04/21 11:20:42;;;;;;;10.93;3.93;;;;;;;17.44;80.33;98442.84;4987764;28;20662;-82
2022/04/21 11:23:23;;;;;;;13.37;4.00;;;;;;;17.35;82.08;98444.66;5046283;28;20200;-82
2022/04/21 11:26:02;;;;;;;14.57;4.20;;;;;;;17.04;82.37;98451.47;5028011;28;20237;-81
2022/04/21 11:28:32;;;;;;;4.50;2.87;;;;;;;16.84;85.08;98451.66;5028514;28;20669;-81
2022/04/21 11:31:05;;;;;;;4.70;3.63;;;;;;;16.82;84.04;98439.47;5032563;28;20208;-81
2022/04/21 11:33:33;;;;;;;3.03;2.60;;;;;;;17.04;84.66;98435.44;5034376;28;20190;-81
2022/04/21 11:36:05;;;;;;;2.93;2.63;;;;;;;16.84;85.08;98437.47;5028115;28;20724;-81
2022/04/21 11:38:34;;;;;;;3.33;3.00;;;;;;;16.92;86.15;98439.34;4972521;28;20672;-82
2022/04/21 11:41:05;;;;;;;3.60;2.93;;;;;;;17.02;85.19;98434.75;4973744;28;20279;-81
2022/04/21 11:43:35;;;;;;;3.00;2.67;;;;;;;17.49;82.79;98424.50;4984650;28;20186;-81
2022/04/21 11:46:06;;;;;;;4.30;2.73;;;;;;;17.44;83.45;98429.47;5012097;28;20242;-82
2022/04/21 11:48:37;;;;;;;3.50;2.90;;;;;;;17.61;80.62;98430.41;5012250;28;20199;-81
2022/04/21 11:51:08;;;;;;;3.43;2.90;;;;;;;18.03;77.79;98428.56;5012300;28;20198;-81
2022/04/21 11:53:40;;;;;;;3.40;3.10;;;;;;;17.99;76.14;98429.91;5014662;28;20198;-81
2022/04/21 11:56:10;;;;;;;3.53;2.50;;;;;;;18.54;76.00;98429.34;5016531;28;20236;-81
2022/04/21 11:58:41;;;;;;;2.70;2.50;;;;;;;18.49;75.64;98425.47;5012108;28;20208;-81
2022/04/21 12:06:49;;;;;;;3.60;3.07;;;;;;;18.35;77.97;98420.78;5039090;28;20201;-81
2022/04/21 12:09:25;;;;;;;4.97;2.23;;;;;;;18.42;75.79;98419.09;5034165;28;20201;-81
2022/04/21 12:11:55;;;;;;;3.37;2.57;;;;;;;18.02;77.31;98415.34;5033437;28;20205;-81
2022/04/21 12:14:24;;;;;;;4.13;3.00;;;;;;;18.69;76.37;98421.47;5032292;28;20201;-81
2022/04/21 12:16:54;;;;;;;4.87;3.70;;;;;;;18.71;73.58;98405.22;5036019;28;20201;-82
2022/04/21 12:19:32;;;;;;;3.37;2.80;;;;;;;18.68;73.34;98410.94;5031571;28;20217;-81
2022/04/21 12:22:05;;;;;;;3.27;2.40;;;;;;;18.97;72.24;98411.25;5032217;28;20281;-81
2022/04/21 12:24:39;;;;;;;4.47;2.50;;;;;;;19.10;70.72;98405.34;5027471;28;20198;-81
2022/04/21 12:27:14;;;;;;;4.43;2.63;;;;;;;19.48;69.07;98402.88;5034097;28;20194;-81
2022/04/21 12:29:51;;;;;;;3.37;2.27;;;;;;;19.63;67.00;98401.19;5032311;28;20193;-81
2022/04/21 12:32:22;;;;;;;3.20;2.27;;;;;;;19.69;64.58;98403.19;5054239;28;20204;-81
2022/04/21 12:34:51;;;;;;;2.33;2.13;;;;;;;20.07;63.19;98390.72;5055561;28;20205;-81
2022/04/21 12:37:27;;;;;;;2.93;2.60;;;;;;;20.20;62.96;98401.75;5054182;28;20185;-85
2022/04/21 12:39:56;;;;;;;4.30;2.40;;;;;;;20.48;63.29;98398.56;5058178;28;20209;-85
2022/04/21 12:42:47;;;;;;;5.23;2.53;;;;;;;19.94;64.03;98382.41;5055291;28;20288;-85
2022/04/21 12:45:20;;;;;;;2.83;2.17;;;;;;;20.22;65.30;98388.09;5056201;28;20250;-84
2022/04/21 12:47:50;;;;;;;4.63;2.77;;;;;;;19.69;65.90;98379.84;5056010;28;20229;-86
2022/04/21 12:50:20;;;;;;;3.87;2.90;;;;;;;19.76;65.78;98382.66;5059931;28;20276;-85